sensor_id;sensor_type;location;lat;lon;timestamp;P1;durP1;ratioP1;P2;durP2;ratioP2
9940;SDS011;5009;50.656;7.188;2022-08-21T00:00:38;9.07;;;5.67;;
9940;SDS011;5009;50.656;7.188;2022-08-21T00:03:08;7.63;;;5.40;;
9940;SDS011;5009;50.656;7.188;2022-08-21T00:05:40;6.87;;;5.53;;
9940;SDS011;5009;50.656;7.188;2022-08-21T00:08:07;6.00;;;5.40;;
9940;SDS011;5009;50.656;7.188;2022-08-21T00:10:33;7.67;;;5.63;;
9940;SDS011;5009;50.656;7.188;2022-08-21T00:13:00;7.83;;;5.43;;
9940;SDS011;5009;50.656;7.188;2022-08-21T00:15:29;9.47;;;6.07;;
9940;SDS011;5009;50.656;7.188;2022-08-21T00:17:56;10.53;;;6.30;;
9940;SDS011;5009;50.656;7.188;2022-08-21T00:20:23;6.77;;;5.33;;
9940;SDS011;5009;50.656;7.188;2022-08-21T00:22:50;6.80;;;5.60;;
9940;SDS011;5009;50.656;7.188;2022-08-21T00:25:17;7.60;;;5.93;;
9940;SDS011;5009;50.656;7.188;2022-08-21T00:27:44;7.33;;;6.03;;
9940;SDS011;5009;50.656;7.188;2022-08-21T00:30:11;7.23;;;5.57;;
9940;SDS011;5009;50.656;7.188;2022-08-21T00:32:39;8.20;;;4.93;;
9940;SDS011;5009;50.656;7.188;2022-08-21T00:35:06;6.03;;;5.13;;
9940;SDS011;5009;50.656;7.188;2022-08-21T00:37:33;7.93;;;5.50;;
9940;SDS011;5009;50.656;7.188;2022-08-21T00:39:58;9.50;;;5.83;;
9940;SDS011;5009;50.656;7.188;2022-08-21T00:42:24;6.87;;;5.20;;
9940;SDS011;5009;50.656;7.188;2022-08-21T00:44:50;8.00;;;5.60;;
9940;SDS011;5009;50.656;7.188;2022-08-21T00:47:16;7.03;;;5.60;;
9940;SDS011;5009;50.656;7.188;2022-08-21T00:49:43;6.03;;;5.17;;
9940;SDS011;5009;50.656;7.188;2022-08-21T00:52:10;7.53;;;5.27;;
9940;SDS011;5009;50.656;7.188;2022-08-21T00:54:40;6.67;;;5.17;;
9940;SDS011;5009;50.656;7.188;2022-08-21T00:57:16;7.97;;;5.47;;
9940;SDS011;5009;50.656;7.188;2022-08-21T00:59:46;7.13;;;5.40;;
9940;SDS011;5009;50.656;7.188;2022-08-21T01:02:16;7.00;;;5.40;;
9940;SDS011;5009;50.656;7.188;2022-08-21T01:04:42;6.20;;;5.30;;
9940;SDS011;5009;50.656;7.188;2022-08-21T01:07:08;7.50;;;5.53;;
9940;SDS011;5009;50.656;7.188;2022-08-21T01:09:34;6.83;;;5.17;;
9940;SDS011;5009;50.656;7.188;2022-08-21T01:12:00;10.60;;;6.00;;
9940;SDS011;5009;50.656;7.188;2022-08-21T01:14:27;6.53;;;5.27;;
9940;SDS011;5009;50.656;7.188;2022-08-21T01:16:53;10.07;;;5.60;;
9940;SDS011;5009;50.656;7.188;2022-08-21T01:19:20;6.80;;;5.60;;
9940;SDS011;5009;50.656;7.188;2022-08-21T01:21:46;7.90;;;5.20;;
9940;SDS011;5009;50.656;7.188;2022-08-21T01:24:12;7.03;;;5.27;;
9940;SDS011;5009;50.656;7.188;2022-08-21T01:26:38;7.53;;;5.63;;
9940;SDS011;5009;50.656;7.188;2022-08-21T01:29:07;6.03;;;5.23;;
9940;SDS011;5009;50.656;7.188;2022-08-21T01:31:53;6.40;;;5.67;;
9940;SDS011;5009;50.656;7.188;2022-08-21T01:34:18;6.30;;;5.47;;
9940;SDS011;5009;50.656;7.188;2022-08-21T01:36:44;7.20;;;5.60;;
9940;SDS011;5009;50.656;7.188;2022-08-21T01:39:11;7.07;;;5.23;;
9940;SDS011;5009;50.656;7.188;2022-08-21T01:41:37;7.10;;;5.10;;
9940;SDS011;5009;50.656;7.188;2022-08-21T01:44:02;8.47;;;6.30;;
9940;SDS011;5009;50.656;7.188;2022-08-21T01:46:28;7.77;;;5.60;;
9940;SDS011;5009;50.656;7.188;2022-08-21T01:48:54;7.47;;;5.00;;
9940;SDS011;5009;50.656;7.188;2022-08-21T01:51:20;6.00;;;5.33;;
9940;SDS011;5009;50.656;7.188;2022-08-21T01:53:45;8.47;;;5.53;;
9940;SDS011;5009;50.656;7.188;2022-08-21T01:56:12;7.63;;;5.20;;
9940;SDS011;5009;50.656;7.188;2022-08-21T01:58:39;7.57;;;5.07;;
9940;SDS011;5009;50.656;7.188;2022-08-21T02:01:05;7.43;;;5.03;;
9940;SDS011;5009;50.656;7.188;2022-08-21T02:03:31;6.40;;;5.70;;
9940;SDS011;5009;50.656;7.188;2022-08-21T02:05:57;6.07;;;5.00;;
9940;SDS011;5009;50.656;7.188;2022-08-21T02:08:23;8.60;;;5.27;;
9940;SDS011;5009;50.656;7.188;2022-08-21T02:10:49;8.23;;;5.50;;
9940;SDS011;5009;50.656;7.188;2022-08-21T02:13:16;9.10;;;5.17;;
9940;SDS011;5009;50.656;7.188;2022-08-21T02:15:42;10.07;;;5.90;;
9940;SDS011;5009;50.656;7.188;2022-08-21T02:18:08;9.23;;;5.33;;
9940;SDS011;5009;50.656;7.188;2022-08-21T02:20:35;7.60;;;5.27;;
9940;SDS011;5009;50.656;7.188;2022-08-21T02:23:03;6.13;;;4.60;;
9940;SDS011;5009;50.656;7.188;2022-08-21T02:25:30;7.07;;;5.00;;
9940;SDS011;5009;50.656;7.188;2022-08-21T02:27:56;7.53;;;5.10;;
9940;SDS011;5009;50.656;7.188;2022-08-21T02:30:29;9.20;;;5.37;;
9940;SDS011;5009;50.656;7.188;2022-08-21T02:33:04;6.33;;;5.03;;
9940;SDS011;5009;50.656;7.188;2022-08-21T02:35:31;5.80;;;5.20;;
9940;SDS011;5009;50.656;7.188;2022-08-21T02:37:58;6.70;;;5.13;;
9940;SDS011;5009;50.656;7.188;2022-08-21T02:40:28;7.90;;;4.83;;
9940;SDS011;5009;50.656;7.188;2022-08-21T02:42:57;9.80;;;5.23;;
9940;SDS011;5009;50.656;7.188;2022-08-21T02:45:23;5.80;;;5.20;;
9940;SDS011;5009;50.656;7.188;2022-08-21T02:47:53;12.37;;;5.47;;
9940;SDS011;5009;50.656;7.188;2022-08-21T02:50:22;8.00;;;5.50;;
9940;SDS011;5009;50.656;7.188;2022-08-21T02:52:49;5.27;;;4.77;;
9940;SDS011;5009;50.656;7.188;2022-08-21T02:55:17;7.23;;;5.10;;
9940;SDS011;5009;50.656;7.188;2022-08-21T02:57:47;5.97;;;5.37;;
9940;SDS011;5009;50.656;7.188;2022-08-21T03:00:13;8.30;;;5.60;;
9940;SDS011;5009;50.656;7.188;2022-08-21T03:02:40;7.53;;;5.23;;
9940;SDS011;5009;50.656;7.188;2022-08-21T03:05:07;8.33;;;5.83;;
9940;SDS011;5009;50.656;7.188;2022-08-21T03:07:35;5.73;;;5.13;;
9940;SDS011;5009;50.656;7.188;2022-08-21T03:10:01;7.93;;;5.23;;
9940;SDS011;5009;50.656;7.188;2022-08-21T03:12:27;7.23;;;5.73;;
9940;SDS011;5009;50.656;7.188;2022-08-21T03:14:53;6.17;;;5.50;;
9940;SDS011;5009;50.656;7.188;2022-08-21T03:17:18;6.63;;;6.03;;
9940;SDS011;5009;50.656;7.188;2022-08-21T03:19:44;6.27;;;5.10;;
9940;SDS011;5009;50.656;7.188;2022-08-21T03:22:10;10.17;;;5.87;;
9940;SDS011;5009;50.656;7.188;2022-08-21T03:24:35;8.83;;;5.70;;
9940;SDS011;5009;50.656;7.188;2022-08-21T03:27:01;8.10;;;5.50;;
9940;SDS011;5009;50.656;7.188;2022-08-21T03:29:27;7.70;;;5.57;;
9940;SDS011;5009;50.656;7.188;2022-08-21T03:31:52;8.53;;;5.97;;
9940;SDS011;5009;50.656;7.188;2022-08-21T03:34:20;8.07;;;5.90;;
9940;SDS011;5009;50.656;7.188;2022-08-21T03:36:46;9.87;;;6.23;;
9940;SDS011;5009;50.656;7.188;2022-08-21T03:39:13;8.67;;;5.97;;
9940;SDS011;5009;50.656;7.188;2022-08-21T03:41:40;7.03;;;5.80;;
9940;SDS011;5009;50.656;7.188;2022-08-21T03:44:05;7.67;;;5.77;;
9940;SDS011;5009;50.656;7.188;2022-08-21T03:46:31;7.47;;;5.30;;
9940;SDS011;5009;50.656;7.188;2022-08-21T03:48:56;10.47;;;5.57;;
9940;SDS011;5009;50.656;7.188;2022-08-21T03:51:22;8.97;;;5.20;;
9940;SDS011;5009;50.656;7.188;2022-08-21T03:53:47;6.93;;;5.07;;
9940;SDS011;5009;50.656;7.188;2022-08-21T03:56:13;6.60;;;5.33;;
9940;SDS011;5009;50.656;7.188;2022-08-21T03:58:38;10.50;;;5.87;;
9940;SDS011;5009;50.656;7.188;2022-08-21T04:01:05;6.33;;;5.73;;
9940;SDS011;5009;50.656;7.188;2022-08-21T04:03:31;8.23;;;5.50;;
9940;SDS011;5009;50.656;7.188;2022-08-21T04:05:59;9.30;;;5.90;;
9940;SDS011;5009;50.656;7.188;2022-08-21T04:08:24;9.83;;;6.40;;
9940;SDS011;5009;50.656;7.188;2022-08-21T04:10:51;8.93;;;5.33;;
9940;SDS011;5009;50.656;7.188;2022-08-21T04:13:19;6.70;;;5.53;;
9940;SDS011;5009;50.656;7.188;2022-08-21T04:15:45;7.17;;;5.30;;
9940;SDS011;5009;50.656;7.188;2022-08-21T04:18:11;8.70;;;5.80;;
9940;SDS011;5009;50.656;7.188;2022-08-21T04:20:37;8.57;;;5.83;;
9940;SDS011;5009;50.656;7.188;2022-08-21T04:23:03;8.43;;;5.40;;
9940;SDS011;5009;50.656;7.188;2022-08-21T04:25:29;7.70;;;6.33;;
9940;SDS011;5009;50.656;7.188;2022-08-21T04:27:54;10.07;;;6.17;;
9940;SDS011;5009;50.656;7.188;2022-08-21T04:30:20;8.57;;;6.30;;
9940;SDS011;5009;50.656;7.188;2022-08-21T04:32:47;7.47;;;6.03;;
9940;SDS011;5009;50.656;7.188;2022-08-21T04:35:15;9.23;;;6.80;;
9940;SDS011;5009;50.656;7.188;2022-08-21T04:37:44;6.93;;;5.97;;
9940;SDS011;5009;50.656;7.188;2022-08-21T04:40:11;6.33;;;5.67;;
9940;SDS011;5009;50.656;7.188;2022-08-21T04:42:45;7.70;;;6.63;;
9940;SDS011;5009;50.656;7.188;2022-08-21T04:45:22;8.20;;;5.80;;
9940;SDS011;5009;50.656;7.188;2022-08-21T04:47:56;6.87;;;6.17;;
9940;SDS011;5009;50.656;7.188;2022-08-21T04:50:25;8.47;;;6.03;;
9940;SDS011;5009;50.656;7.188;2022-08-21T04:52:56;9.03;;;6.13;;
9940;SDS011;5009;50.656;7.188;2022-08-21T04:55:22;8.47;;;6.40;;
9940;SDS011;5009;50.656;7.188;2022-08-21T04:57:49;8.43;;;6.60;;
9940;SDS011;5009;50.656;7.188;2022-08-21T05:00:18;7.70;;;6.17;;
9940;SDS011;5009;50.656;7.188;2022-08-21T05:02:44;7.13;;;6.10;;
9940;SDS011;5009;50.656;7.188;2022-08-21T05:05:12;9.60;;;7.10;;
9940;SDS011;5009;50.656;7.188;2022-08-21T05:07:38;8.80;;;6.40;;
9940;SDS011;5009;50.656;7.188;2022-08-21T05:10:04;7.33;;;6.20;;
9940;SDS011;5009;50.656;7.188;2022-08-21T05:12:32;9.23;;;7.30;;
9940;SDS011;5009;50.656;7.188;2022-08-21T05:14:58;10.80;;;7.23;;
9940;SDS011;5009;50.656;7.188;2022-08-21T05:17:23;13.40;;;6.53;;
9940;SDS011;5009;50.656;7.188;2022-08-21T05:19:49;7.70;;;6.80;;
9940;SDS011;5009;50.656;7.188;2022-08-21T05:22:18;9.13;;;6.97;;
9940;SDS011;5009;50.656;7.188;2022-08-21T05:24:49;8.37;;;6.73;;
9940;SDS011;5009;50.656;7.188;2022-08-21T05:27:39;7.70;;;7.00;;
9940;SDS011;5009;50.656;7.188;2022-08-21T05:30:08;8.40;;;6.73;;
9940;SDS011;5009;50.656;7.188;2022-08-21T05:32:35;9.13;;;6.87;;
9940;SDS011;5009;50.656;7.188;2022-08-21T05:35:00;7.93;;;7.13;;
9940;SDS011;5009;50.656;7.188;2022-08-21T05:37:26;10.07;;;7.23;;
9940;SDS011;5009;50.656;7.188;2022-08-21T05:39:52;8.77;;;7.13;;
9940;SDS011;5009;50.656;7.188;2022-08-21T05:42:17;8.27;;;6.43;;
9940;SDS011;5009;50.656;7.188;2022-08-21T05:44:43;9.13;;;6.50;;
9940;SDS011;5009;50.656;7.188;2022-08-21T05:47:09;9.40;;;7.10;;
9940;SDS011;5009;50.656;7.188;2022-08-21T05:49:36;8.73;;;7.67;;
9940;SDS011;5009;50.656;7.188;2022-08-21T05:52:03;9.50;;;6.80;;
9940;SDS011;5009;50.656;7.188;2022-08-21T05:54:30;7.47;;;6.77;;
9940;SDS011;5009;50.656;7.188;2022-08-21T05:56:56;10.40;;;6.80;;
9940;SDS011;5009;50.656;7.188;2022-08-21T05:59:22;7.37;;;6.47;;
9940;SDS011;5009;50.656;7.188;2022-08-21T06:01:48;7.80;;;6.28;;
9940;SDS011;5009;50.656;7.188;2022-08-21T06:04:13;8.15;;;6.03;;
9940;SDS011;5009;50.656;7.188;2022-08-21T06:06:39;9.82;;;6.00;;
9940;SDS011;5009;50.656;7.188;2022-08-21T06:09:05;5.95;;;5.00;;
9940;SDS011;5009;50.656;7.188;2022-08-21T06:11:30;8.25;;;5.78;;
9940;SDS011;5009;50.656;7.188;2022-08-21T06:13:57;6.43;;;4.75;;
9940;SDS011;5009;50.656;7.188;2022-08-21T06:16:23;7.50;;;5.05;;
9940;SDS011;5009;50.656;7.188;2022-08-21T06:18:49;6.95;;;5.40;;
9940;SDS011;5009;50.656;7.188;2022-08-21T06:21:14;6.38;;;4.70;;
9940;SDS011;5009;50.656;7.188;2022-08-21T06:23:40;9.02;;;5.70;;
9940;SDS011;5009;50.656;7.188;2022-08-21T06:26:07;6.80;;;5.63;;
9940;SDS011;5009;50.656;7.188;2022-08-21T06:28:34;5.85;;;5.25;;
9940;SDS011;5009;50.656;7.188;2022-08-21T06:31:00;5.97;;;5.00;;
9940;SDS011;5009;50.656;7.188;2022-08-21T06:33:26;6.30;;;5.40;;
9940;SDS011;5009;50.656;7.188;2022-08-21T06:35:52;7.35;;;6.03;;
9940;SDS011;5009;50.656;7.188;2022-08-21T06:38:18;9.07;;;6.20;;
9940;SDS011;5009;50.656;7.188;2022-08-21T06:40:44;6.82;;;5.63;;
9940;SDS011;5009;50.656;7.188;2022-08-21T06:43:14;6.00;;;5.32;;
9940;SDS011;5009;50.656;7.188;2022-08-21T06:45:41;6.85;;;5.55;;
9940;SDS011;5009;50.656;7.188;2022-08-21T06:48:07;7.60;;;5.70;;
9940;SDS011;5009;50.656;7.188;2022-08-21T06:50:34;6.35;;;5.70;;
9940;SDS011;5009;50.656;7.188;2022-08-21T06:53:04;8.35;;;6.07;;
9940;SDS011;5009;50.656;7.188;2022-08-21T06:55:36;5.75;;;5.22;;
9940;SDS011;5009;50.656;7.188;2022-08-21T06:58:03;8.25;;;5.78;;
9940;SDS011;5009;50.656;7.188;2022-08-21T07:00:29;7.60;;;5.72;;
9940;SDS011;5009;50.656;7.188;2022-08-21T07:02:55;9.90;;;6.10;;
9940;SDS011;5009;50.656;7.188;2022-08-21T07:05:21;6.97;;;5.63;;
9940;SDS011;5009;50.656;7.188;2022-08-21T07:07:49;7.55;;;5.88;;
9940;SDS011;5009;50.656;7.188;2022-08-21T07:10:15;6.18;;;5.55;;
9940;SDS011;5009;50.656;7.188;2022-08-21T07:12:40;7.32;;;5.60;;
9940;SDS011;5009;50.656;7.188;2022-08-21T07:15:06;8.07;;;5.43;;
9940;SDS011;5009;50.656;7.188;2022-08-21T07:17:32;6.45;;;5.78;;
9940;SDS011;5009;50.656;7.188;2022-08-21T07:19:58;7.78;;;6.10;;
9940;SDS011;5009;50.656;7.188;2022-08-21T07:22:23;7.20;;;4.95;;
9940;SDS011;5009;50.656;7.188;2022-08-21T07:24:49;6.20;;;5.47;;
9940;SDS011;5009;50.656;7.188;2022-08-21T07:27:14;7.70;;;5.32;;
9940;SDS011;5009;50.656;7.188;2022-08-21T07:29:40;7.20;;;5.68;;
9940;SDS011;5009;50.656;7.188;2022-08-21T07:32:06;7.10;;;5.85;;
9940;SDS011;5009;50.656;7.188;2022-08-21T07:34:31;7.43;;;6.57;;
9940;SDS011;5009;50.656;7.188;2022-08-21T07:36:57;10.18;;;5.35;;
9940;SDS011;5009;50.656;7.188;2022-08-21T07:39:23;8.50;;;5.63;;
9940;SDS011;5009;50.656;7.188;2022-08-21T07:41:49;6.50;;;5.90;;
9940;SDS011;5009;50.656;7.188;2022-08-21T07:44:15;7.45;;;5.60;;
9940;SDS011;5009;50.656;7.188;2022-08-21T07:46:40;10.25;;;6.40;;
9940;SDS011;5009;50.656;7.188;2022-08-21T07:49:06;11.80;;;5.93;;
9940;SDS011;5009;50.656;7.188;2022-08-21T07:51:31;6.68;;;5.93;;
9940;SDS011;5009;50.656;7.188;2022-08-21T07:53:58;6.63;;;5.55;;
9940;SDS011;5009;50.656;7.188;2022-08-21T07:56:24;6.32;;;5.25;;
9940;SDS011;5009;50.656;7.188;2022-08-21T07:58:50;7.68;;;5.65;;
9940;SDS011;5009;50.656;7.188;2022-08-21T08:01:17;6.65;;;5.20;;
9940;SDS011;5009;50.656;7.188;2022-08-21T08:03:43;8.00;;;5.35;;
9940;SDS011;5009;50.656;7.188;2022-08-21T08:06:10;8.00;;;5.70;;
9940;SDS011;5009;50.656;7.188;2022-08-21T08:08:37;7.60;;;5.18;;
9940;SDS011;5009;50.656;7.188;2022-08-21T08:11:05;7.32;;;5.07;;
9940;SDS011;5009;50.656;7.188;2022-08-21T08:13:31;7.07;;;4.88;;
9940;SDS011;5009;50.656;7.188;2022-08-21T08:15:57;11.50;;;5.28;;
9940;SDS011;5009;50.656;7.188;2022-08-21T08:18:22;7.72;;;5.25;;
9940;SDS011;5009;50.656;7.188;2022-08-21T08:20:48;8.35;;;5.03;;
9940;SDS011;5009;50.656;7.188;2022-08-21T08:23:14;7.55;;;5.35;;
9940;SDS011;5009;50.656;7.188;2022-08-21T08:25:40;7.80;;;5.30;;
9940;SDS011;5009;50.656;7.188;2022-08-21T08:28:06;7.07;;;5.32;;
9940;SDS011;5009;50.656;7.188;2022-08-21T08:30:32;6.60;;;4.93;;
9940;SDS011;5009;50.656;7.188;2022-08-21T08:32:58;7.38;;;5.22;;
9940;SDS011;5009;50.656;7.188;2022-08-21T08:35:24;9.48;;;5.40;;
9940;SDS011;5009;50.656;7.188;2022-08-21T08:37:51;7.30;;;4.97;;
9940;SDS011;5009;50.656;7.188;2022-08-21T08:43:14;5.78;;;3.95;;
9940;SDS011;5009;50.656;7.188;2022-08-21T08:45:40;6.75;;;4.65;;
9940;SDS011;5009;50.656;7.188;2022-08-21T08:48:13;6.82;;;4.20;;
9940;SDS011;5009;50.656;7.188;2022-08-21T08:50:47;8.65;;;4.68;;
9940;SDS011;5009;50.656;7.188;2022-08-21T08:53:22;4.95;;;4.38;;
9940;SDS011;5009;50.656;7.188;2022-08-21T08:55:52;9.32;;;4.95;;
9940;SDS011;5009;50.656;7.188;2022-08-21T08:58:20;5.00;;;4.40;;
9940;SDS011;5009;50.656;7.188;2022-08-21T09:00:51;6.28;;;4.78;;
9940;SDS011;5009;50.656;7.188;2022-08-21T09:03:18;6.95;;;4.13;;
9940;SDS011;5009;50.656;7.188;2022-08-21T09:05:47;5.85;;;4.20;;
9940;SDS011;5009;50.656;7.188;2022-08-21T09:11:04;7.35;;;4.22;;
9940;SDS011;5009;50.656;7.188;2022-08-21T09:25:11;7.35;;;4.13;;
9940;SDS011;5009;50.656;7.188;2022-08-21T09:27:57;7.63;;;4.20;;
9940;SDS011;5009;50.656;7.188;2022-08-21T09:30:25;6.75;;;4.35;;
9940;SDS011;5009;50.656;7.188;2022-08-21T09:32:53;6.88;;;3.80;;
9940;SDS011;5009;50.656;7.188;2022-08-21T09:35:20;4.68;;;3.25;;
9940;SDS011;5009;50.656;7.188;2022-08-21T09:37:56;6.25;;;4.00;;
9940;SDS011;5009;50.656;7.188;2022-08-21T09:40:41;6.68;;;3.70;;
9940;SDS011;5009;50.656;7.188;2022-08-21T09:45:46;4.18;;;3.45;;
9940;SDS011;5009;50.656;7.188;2022-08-21T09:50:40;7.55;;;3.60;;
9940;SDS011;5009;50.656;7.188;2022-08-21T09:53:14;5.93;;;3.80;;
9940;SDS011;5009;50.656;7.188;2022-08-21T09:55:53;6.05;;;4.13;;
9940;SDS011;5009;50.656;7.188;2022-08-21T09:58:49;6.93;;;3.85;;
9940;SDS011;5009;50.656;7.188;2022-08-21T10:01:22;7.10;;;3.95;;
9940;SDS011;5009;50.656;7.188;2022-08-21T10:04:11;5.63;;;3.75;;
9940;SDS011;5009;50.656;7.188;2022-08-21T10:06:36;5.97;;;3.67;;
9940;SDS011;5009;50.656;7.188;2022-08-21T10:09:12;8.27;;;3.72;;
9940;SDS011;5009;50.656;7.188;2022-08-21T10:11:41;4.65;;;3.55;;
9940;SDS011;5009;50.656;7.188;2022-08-21T10:25:18;5.57;;;3.60;;
9940;SDS011;5009;50.656;7.188;2022-08-21T10:28:00;6.07;;;3.72;;
9940;SDS011;5009;50.656;7.188;2022-08-21T10:31:00;3.85;;;3.10;;
9940;SDS011;5009;50.656;7.188;2022-08-21T10:36:26;6.45;;;3.50;;
9940;SDS011;5009;50.656;7.188;2022-08-21T10:39:09;6.70;;;3.40;;
9940;SDS011;5009;50.656;7.188;2022-08-21T10:55:12;3.85;;;3.28;;
9940;SDS011;5009;50.656;7.188;2022-08-21T10:57:46;4.85;;;3.10;;
9940;SDS011;5009;50.656;7.188;2022-08-21T11:00:26;6.95;;;3.47;;
9940;SDS011;5009;50.656;7.188;2022-08-21T11:03:07;4.80;;;3.08;;
9940;SDS011;5009;50.656;7.188;2022-08-21T11:05:40;5.13;;;3.28;;
9940;SDS011;5009;50.656;7.188;2022-08-21T11:08:14;4.47;;;2.70;;
9940;SDS011;5009;50.656;7.188;2022-08-21T11:10:59;3.80;;;2.83;;
9940;SDS011;5009;50.656;7.188;2022-08-21T11:22:26;4.57;;;3.08;;
9940;SDS011;5009;50.656;7.188;2022-08-21T11:29:59;3.35;;;2.53;;
9940;SDS011;5009;50.656;7.188;2022-08-21T11:37:40;4.70;;;2.65;;
9940;SDS011;5009;50.656;7.188;2022-08-21T11:51:36;4.38;;;2.63;;
9940;SDS011;5009;50.656;7.188;2022-08-21T11:54:08;5.38;;;3.20;;
9940;SDS011;5009;50.656;7.188;2022-08-21T11:57:02;8.63;;;2.92;;
9940;SDS011;5009;50.656;7.188;2022-08-21T11:59:39;4.32;;;2.85;;
9940;SDS011;5009;50.656;7.188;2022-08-21T12:02:14;6.03;;;2.88;;
9940;SDS011;5009;50.656;7.188;2022-08-21T12:04:47;4.15;;;3.13;;
9940;SDS011;5009;50.656;7.188;2022-08-21T12:10:09;5.55;;;2.83;;
9940;SDS011;5009;50.656;7.188;2022-08-21T12:12:41;2.85;;;2.63;;
9940;SDS011;5009;50.656;7.188;2022-08-21T12:15:16;5.70;;;2.88;;
9940;SDS011;5009;50.656;7.188;2022-08-21T12:18:45;5.97;;;3.13;;
9940;SDS011;5009;50.656;7.188;2022-08-21T12:20:58;4.38;;;2.67;;
9940;SDS011;5009;50.656;7.188;2022-08-21T12:23:31;3.28;;;2.78;;
9940;SDS011;5009;50.656;7.188;2022-08-21T12:26:25;4.68;;;2.83;;
9940;SDS011;5009;50.656;7.188;2022-08-21T12:29:07;3.63;;;2.40;;
9940;SDS011;5009;50.656;7.188;2022-08-21T12:31:49;4.97;;;2.80;;
9940;SDS011;5009;50.656;7.188;2022-08-21T12:34:31;3.40;;;2.47;;
9940;SDS011;5009;50.656;7.188;2022-08-21T12:37:01;3.65;;;2.78;;
9940;SDS011;5009;50.656;7.188;2022-08-21T12:39:32;2.88;;;2.38;;
9940;SDS011;5009;50.656;7.188;2022-08-21T12:44:53;2.72;;;2.50;;
9940;SDS011;5009;50.656;7.188;2022-08-21T12:47:32;3.47;;;2.60;;
9940;SDS011;5009;50.656;7.188;2022-08-21T12:50:11;4.65;;;2.78;;
9940;SDS011;5009;50.656;7.188;2022-08-21T12:52:45;3.35;;;2.58;;
9940;SDS011;5009;50.656;7.188;2022-08-21T12:55:24;3.72;;;2.70;;
9940;SDS011;5009;50.656;7.188;2022-08-21T12:57:53;3.65;;;2.75;;
9940;SDS011;5009;50.656;7.188;2022-08-21T13:00:20;3.10;;;2.60;;
9940;SDS011;5009;50.656;7.188;2022-08-21T13:02:50;3.90;;;2.78;;
9940;SDS011;5009;50.656;7.188;2022-08-21T13:05:35;3.97;;;2.60;;
9940;SDS011;5009;50.656;7.188;2022-08-21T13:08:05;3.83;;;2.85;;
9940;SDS011;5009;50.656;7.188;2022-08-21T13:10:34;4.82;;;2.90;;
9940;SDS011;5009;50.656;7.188;2022-08-21T13:13:02;4.25;;;2.83;;
9940;SDS011;5009;50.656;7.188;2022-08-21T13:15:32;3.53;;;2.97;;
9940;SDS011;5009;50.656;7.188;2022-08-21T13:18:00;4.00;;;2.63;;
9940;SDS011;5009;50.656;7.188;2022-08-21T13:20:35;4.18;;;2.67;;
9940;SDS011;5009;50.656;7.188;2022-08-21T13:23:03;3.63;;;3.10;;
9940;SDS011;5009;50.656;7.188;2022-08-21T13:25:40;3.13;;;2.38;;
9940;SDS011;5009;50.656;7.188;2022-08-21T13:28:10;4.78;;;2.80;;
9940;SDS011;5009;50.656;7.188;2022-08-21T13:30:48;6.53;;;2.55;;
9940;SDS011;5009;50.656;7.188;2022-08-21T13:33:16;3.15;;;2.55;;
9940;SDS011;5009;50.656;7.188;2022-08-21T13:35:48;3.47;;;2.40;;
9940;SDS011;5009;50.656;7.188;2022-08-21T13:38:21;3.60;;;2.70;;
9940;SDS011;5009;50.656;7.188;2022-08-21T13:40:51;3.55;;;2.83;;
9940;SDS011;5009;50.656;7.188;2022-08-21T13:43:25;5.70;;;2.90;;
9940;SDS011;5009;50.656;7.188;2022-08-21T13:45:59;4.45;;;2.80;;
9940;SDS011;5009;50.656;7.188;2022-08-21T13:48:28;3.88;;;2.60;;
9940;SDS011;5009;50.656;7.188;2022-08-21T13:50:56;5.30;;;2.80;;
9940;SDS011;5009;50.656;7.188;2022-08-21T13:53:26;4.47;;;2.47;;
9940;SDS011;5009;50.656;7.188;2022-08-21T13:55:53;4.05;;;2.40;;
9940;SDS011;5009;50.656;7.188;2022-08-21T13:58:25;5.10;;;2.65;;
9940;SDS011;5009;50.656;7.188;2022-08-21T14:00:55;3.45;;;2.63;;
9940;SDS011;5009;50.656;7.188;2022-08-21T14:03:26;3.20;;;2.60;;
9940;SDS011;5009;50.656;7.188;2022-08-21T14:06:13;3.75;;;2.40;;
9940;SDS011;5009;50.656;7.188;2022-08-21T14:08:46;4.13;;;2.95;;
9940;SDS011;5009;50.656;7.188;2022-08-21T14:11:15;3.75;;;2.42;;
9940;SDS011;5009;50.656;7.188;2022-08-21T14:16:20;6.38;;;2.40;;
9940;SDS011;5009;50.656;7.188;2022-08-21T14:21:32;3.95;;;2.47;;
9940;SDS011;5009;50.656;7.188;2022-08-21T14:26:50;5.03;;;2.72;;
9940;SDS011;5009;50.656;7.188;2022-08-21T14:29:19;4.30;;;2.47;;
9940;SDS011;5009;50.656;7.188;2022-08-21T14:31:51;3.65;;;2.60;;
9940;SDS011;5009;50.656;7.188;2022-08-21T14:34:20;3.92;;;2.42;;
9940;SDS011;5009;50.656;7.188;2022-08-21T14:36:49;3.67;;;2.50;;
9940;SDS011;5009;50.656;7.188;2022-08-21T14:39:15;2.72;;;2.50;;
9940;SDS011;5009;50.656;7.188;2022-08-21T14:41:42;5.10;;;2.90;;
9940;SDS011;5009;50.656;7.188;2022-08-21T14:44:08;3.72;;;2.35;;
9940;SDS011;5009;50.656;7.188;2022-08-21T14:46:34;2.88;;;2.55;;
9940;SDS011;5009;50.656;7.188;2022-08-21T14:49:01;5.93;;;2.70;;
9940;SDS011;5009;50.656;7.188;2022-08-21T14:51:27;4.68;;;2.70;;
9940;SDS011;5009;50.656;7.188;2022-08-21T14:53:53;4.65;;;2.60;;
9940;SDS011;5009;50.656;7.188;2022-08-21T14:56:19;3.72;;;2.45;;
9940;SDS011;5009;50.656;7.188;2022-08-21T14:58:45;4.25;;;2.30;;
9940;SDS011;5009;50.656;7.188;2022-08-21T15:01:14;6.07;;;2.83;;
9940;SDS011;5009;50.656;7.188;2022-08-21T15:03:43;6.70;;;3.13;;
9940;SDS011;5009;50.656;7.188;2022-08-21T15:06:09;3.55;;;2.30;;
9940;SDS011;5009;50.656;7.188;2022-08-21T15:08:35;4.97;;;2.75;;
9940;SDS011;5009;50.656;7.188;2022-08-21T15:11:02;4.28;;;2.92;;
9940;SDS011;5009;50.656;7.188;2022-08-21T15:13:28;6.47;;;2.65;;
9940;SDS011;5009;50.656;7.188;2022-08-21T15:15:55;3.33;;;2.53;;
9940;SDS011;5009;50.656;7.188;2022-08-21T15:18:24;4.72;;;2.90;;
9940;SDS011;5009;50.656;7.188;2022-08-21T15:20:51;7.82;;;3.17;;
9940;SDS011;5009;50.656;7.188;2022-08-21T15:23:17;3.67;;;2.72;;
9940;SDS011;5009;50.656;7.188;2022-08-21T15:25:43;3.35;;;2.67;;
9940;SDS011;5009;50.656;7.188;2022-08-21T15:28:10;4.07;;;2.45;;
9940;SDS011;5009;50.656;7.188;2022-08-21T15:30:38;3.72;;;2.70;;
9940;SDS011;5009;50.656;7.188;2022-08-21T15:33:05;5.28;;;2.60;;
9940;SDS011;5009;50.656;7.188;2022-08-21T15:35:31;4.00;;;2.85;;
9940;SDS011;5009;50.656;7.188;2022-08-21T15:37:57;3.75;;;2.42;;
9940;SDS011;5009;50.656;7.188;2022-08-21T15:40:23;4.88;;;2.65;;
9940;SDS011;5009;50.656;7.188;2022-08-21T15:42:49;3.58;;;2.42;;
9940;SDS011;5009;50.656;7.188;2022-08-21T15:45:17;5.18;;;2.95;;
9940;SDS011;5009;50.656;7.188;2022-08-21T15:47:44;5.13;;;2.95;;
9940;SDS011;5009;50.656;7.188;2022-08-21T15:50:11;8.25;;;3.22;;
9940;SDS011;5009;50.656;7.188;2022-08-21T15:52:37;3.47;;;2.63;;
9940;SDS011;5009;50.656;7.188;2022-08-21T15:55:06;5.35;;;3.03;;
9940;SDS011;5009;50.656;7.188;2022-08-21T15:57:33;5.38;;;3.03;;
9940;SDS011;5009;50.656;7.188;2022-08-21T16:00:00;3.38;;;2.90;;
9940;SDS011;5009;50.656;7.188;2022-08-21T16:02:37;3.42;;;2.72;;
9940;SDS011;5009;50.656;7.188;2022-08-21T16:05:04;4.65;;;2.85;;
9940;SDS011;5009;50.656;7.188;2022-08-21T16:07:30;3.65;;;2.85;;
9940;SDS011;5009;50.656;7.188;2022-08-21T16:09:56;4.55;;;2.47;;
9940;SDS011;5009;50.656;7.188;2022-08-21T16:12:23;7.05;;;3.13;;
9940;SDS011;5009;50.656;7.188;2022-08-21T16:14:52;4.03;;;2.90;;
9940;SDS011;5009;50.656;7.188;2022-08-21T16:17:19;7.35;;;2.67;;
9940;SDS011;5009;50.656;7.188;2022-08-21T16:19:49;4.82;;;3.08;;
9940;SDS011;5009;50.656;7.188;2022-08-21T16:22:15;5.75;;;2.83;;
9940;SDS011;5009;50.656;7.188;2022-08-21T16:24:40;6.07;;;3.60;;
9940;SDS011;5009;50.656;7.188;2022-08-21T16:27:06;4.68;;;3.10;;
9940;SDS011;5009;50.656;7.188;2022-08-21T16:29:32;4.95;;;3.13;;
9940;SDS011;5009;50.656;7.188;2022-08-21T16:32:00;4.38;;;2.65;;
9940;SDS011;5009;50.656;7.188;2022-08-21T16:34:26;5.63;;;2.70;;
9940;SDS011;5009;50.656;7.188;2022-08-21T16:36:52;5.20;;;3.17;;
9940;SDS011;5009;50.656;7.188;2022-08-21T16:39:18;4.55;;;3.30;;
9940;SDS011;5009;50.656;7.188;2022-08-21T16:41:44;5.85;;;3.40;;
9940;SDS011;5009;50.656;7.188;2022-08-21T16:44:11;3.88;;;2.92;;
9940;SDS011;5009;50.656;7.188;2022-08-21T16:46:37;5.82;;;2.75;;
9940;SDS011;5009;50.656;7.188;2022-08-21T16:49:05;3.85;;;2.70;;
9940;SDS011;5009;50.656;7.188;2022-08-21T16:51:31;4.38;;;3.00;;
9940;SDS011;5009;50.656;7.188;2022-08-21T16:53:58;4.00;;;2.97;;
9940;SDS011;5009;50.656;7.188;2022-08-21T16:56:24;4.57;;;3.08;;
9940;SDS011;5009;50.656;7.188;2022-08-21T16:58:50;4.80;;;3.33;;